Time;durP1;ratioP1;P1;durP2;ratioP2;P2;SDS_P1;SDS_P2;PMS_P1;PMS_P2;Temp;Humidity;BMP_temperature;BMP_pressure;BME280_temperature;BME280_humidity;BME280_pressure;Samples;Min_cycle;Max_cycle;Signal;HPM_P1;HPM_P2
2022/09/04 00:00:07;;;;;;;17.00;6.00;;;;;;;11.85;58.45;99458.38;105866;1276;99900;-64
2022/09/04 00:03:00;;;;;;;14.90;6.30;;;;;;;11.79;58.60;99460.55;105775;1277;110895;-64
2022/09/04 00:05:38;;;;;;;12.20;5.70;;;;;;;11.77;58.61;99464.05;105950;1277;99240;-65
2022/09/04 00:08:48;;;;;;;11.20;5.00;;;;;;;11.77;58.59;99464.61;105957;1276;99230;-65
2022/09/04 00:11:44;;;;;;;13.00;5.40;;;;;;;11.74;58.73;99465.86;105953;1276;112360;-64
2022/09/04 00:14:19;;;;;;;12.20;5.00;;;;;;;11.71;58.78;99465.55;105987;1276;98453;-65
2022/09/04 00:17:02;;;;;;;12.40;5.20;;;;;;;11.70;58.89;99463.82;105979;1277;107510;-64
2022/09/04 00:19:42;;;;;;;12.70;5.50;;;;;;;11.68;58.78;99469.64;106003;1277;99255;-64
2022/09/04 00:22:28;;;;;;;12.10;4.70;;;;;;;11.66;58.92;99469.66;105945;1276;99239;-66
2022/09/04 00:25:24;;;;;;;15.30;5.30;;;;;;;11.66;58.97;99473.05;105867;1276;112990;-67
2022/09/04 00:28:10;;;;;;;11.00;4.70;;;;;;;11.63;58.97;99480.69;105843;1277;99294;-64
2022/09/04 00:30:52;;;;;;;13.10;5.60;;;;;;;11.57;58.86;99479.89;105948;1277;107787;-64
2022/09/04 00:34:08;;;;;;;13.60;5.30;;;;;;;11.52;58.97;99473.80;105966;1277;99311;-64
2022/09/04 00:36:49;;;;;;;15.30;5.30;;;;;;;11.46;59.12;99472.59;105433;1284;99406;-64
2022/09/04 00:39:46;;;;;;;12.70;4.80;;;;;;;11.42;59.01;99476.27;105329;1284;113586;-64
2022/09/04 00:43:02;;;;;;;11.90;5.40;;;;;;;11.37;59.19;99478.06;105574;1279;99260;-64
2022/09/04 00:45:44;;;;;;;10.00;4.80;;;;;;;11.33;59.19;99476.70;105849;1279;107839;-64
2022/09/04 00:48:48;;;;;;;14.10;6.00;;;;;;;11.29;59.20;99471.67;105974;1277;99236;-64
2022/09/04 00:51:44;;;;;;;12.70;5.60;;;;;;;11.23;59.22;99471.56;105950;1277;97522;-65
2022/09/04 00:54:41;;;;;;;11.60;5.00;;;;;;;11.15;59.30;99474.75;105913;1276;113068;-65
2022/09/04 00:57:15;;;;;;;13.00;5.40;;;;;;;11.10;59.43;99473.30;105867;1277;99290;-64
2022/09/04 01:00:04;;;;;;;13.50;5.30;;;;;;;11.07;59.36;99467.13;105879;1278;108391;-64
2022/09/04 01:02:53;;;;;;;12.50;5.10;;;;;;;11.02;59.42;99468.67;105894;1276;98367;-64
2022/09/04 01:05:48;;;;;;;13.80;5.70;;;;;;;10.99;59.48;99471.59;105846;1277;98106;-64
2022/09/04 01:08:43;;;;;;;10.50;5.10;;;;;;;10.95;59.53;99471.34;105912;1277;113397;-66
2022/09/04 01:11:38;;;;;;;15.30;5.80;;;;;;;10.91;59.57;99473.23;105980;1276;99368;-63
2022/09/04 01:14:12;;;;;;;14.20;5.90;;;;;;;10.89;59.79;99475.95;105914;1277;107409;-65
2022/09/04 01:17:13;;;;;;;14.00;5.70;;;;;;;10.86;59.62;99470.86;105908;1276;96621;-64
2022/09/04 01:20:03;;;;;;;13.10;5.30;;;;;;;10.85;59.84;99476.25;105870;1277;99346;-63
2022/09/04 01:23:03;;;;;;;15.50;6.30;;;;;;;10.83;59.86;99477.43;105945;1277;112881;-64
2022/09/04 01:26:01;;;;;;;14.60;5.60;;;;;;;10.79;59.87;99469.71;105964;1276;98361;-63
2022/09/04 01:28:53;;;;;;;15.90;5.90;;;;;;;10.78;59.92;99470.35;105958;1276;107750;-63
2022/09/04 01:32:04;;;;;;;12.00;5.40;;;;;;;10.76;59.97;99469.89;105946;1276;99304;-65
2022/09/04 01:34:48;;;;;;;10.40;5.10;;;;;;;10.73;60.06;99464.97;105805;1277;99313;-64
2022/09/04 01:37:46;;;;;;;13.90;5.60;;;;;;;10.70;60.00;99462.67;105958;1276;112374;-65
2022/09/04 01:40:23;;;;;;;11.50;5.10;;;;;;;10.67;60.07;99465.35;105914;1276;99269;-66
2022/09/04 01:43:17;;;;;;;13.90;5.60;;;;;;;10.63;60.12;99468.66;106023;1277;108443;-65
2022/09/04 01:45:59;;;;;;;14.00;5.70;;;;;;;10.58;59.99;99471.85;105801;1279;99234;-64
2022/09/04 01:48:54;;;;;;;15.00;6.00;;;;;;;10.54;60.06;99471.35;105944;1277;99256;-66
2022/09/04 01:51:45;;;;;;;17.20;6.50;;;;;;;10.50;60.28;99468.11;105892;1276;113347;-65
2022/09/04 01:54:31;;;;;;;16.00;6.70;;;;;;;10.47;60.42;99469.32;105937;1277;99425;-63
2022/09/04 01:57:14;;;;;;;15.40;6.50;;;;;;;10.46;60.24;99472.59;105923;1277;107781;-63
2022/09/04 01:59:59;;;;;;;13.40;6.00;;;;;;;10.41;60.39;99475.55;105909;1276;99282;-65
2022/09/04 02:02:55;;;;;;;14.00;6.10;;;;;;;10.38;60.39;99476.60;105878;1276;99185;-65
2022/09/04 02:06:09;;;;;;;13.00;5.40;;;;;;;10.36;60.41;99480.64;105890;1277;112848;-64
2022/09/04 02:09:10;;;;;;;14.00;6.00;;;;;;;10.36;60.63;99481.40;104993;1287;97790;-63
2022/09/04 02:11:50;;;;;;;16.90;6.30;;;;;;;10.33;60.56;99480.30;105861;1279;108312;-63
2022/09/04 02:14:59;;;;;;;14.30;6.00;;;;;;;10.31;60.53;99484.91;105927;1277;97809;-64
2022/09/04 02:17:44;;;;;;;11.80;5.00;;;;;;;10.25;60.55;99483.48;105834;1277;99317;-64
2022/09/04 02:20:22;;;;;;;12.70;5.60;;;;;;;10.22;60.52;99485.44;105869;1277;112846;-65
2022/09/04 02:23:15;;;;;;;12.70;5.80;;;;;;;10.18;60.58;99484.30;105851;1276;99081;-64
2022/09/04 02:26:15;;;;;;;14.00;5.80;;;;;;;10.15;60.59;99480.95;105766;1277;108112;-66
2022/09/04 02:29:30;;;;;;;13.90;6.00;;;;;;;10.10;60.65;99472.91;105909;1277;97683;-63
2022/09/04 02:32:18;;;;;;;15.40;5.80;;;;;;;10.06;60.75;99463.10;105861;1277;99353;-64
2022/09/04 02:35:12;;;;;;;11.80;5.00;;;;;;;10.01;60.73;99463.94;105871;1276;113825;-64
2022/09/04 02:37:44;;;;;;;13.40;5.60;;;;;;;9.96;60.80;99468.48;105929;1277;97628;-65
2022/09/04 02:40:37;;;;;;;14.80;6.30;;;;;;;9.92;60.78;99470.48;106089;1276;108428;-65
2022/09/04 02:43:23;;;;;;;12.30;5.60;;;;;;;9.90;60.93;99464.08;105837;1277;99336;-65
2022/09/04 02:46:19;;;;;;;16.80;6.70;;;;;;;9.88;60.89;99461.90;105905;1276;99224;-65
2022/09/04 02:49:26;;;;;;;13.50;5.80;;;;;;;9.87;61.07;99469.80;106073;1277;112443;-65
2022/09/04 02:52:32;;;;;;;11.80;5.30;;;;;;;9.87;61.13;99473.54;105877;1276;96603;-65
2022/09/04 02:55:18;;;;;;;13.50;6.00;;;;;;;9.87;61.21;99468.92;105851;1276;108854;-65
2022/09/04 02:58:24;;;;;;;14.90;6.30;;;;;;;9.88;61.29;99464.43;105954;1276;99321;-66
2022/09/04 03:01:21;;;;;;;11.40;5.50;;;;;;;9.88;61.39;99465.81;105965;1276;99326;-66
2022/09/04 03:04:12;;;;;;;;;;;;;;;9.89;61.38;99464.34;105896;1277;112796;-63
2022/09/04 03:06:48;;;;;;;14.30;6.70;;;;;;;9.87;61.60;99464.27;105996;1276;96574;-65
2022/09/04 03:09:36;;;;;;;16.00;7.30;;;;;;;9.89;61.54;99468.59;105882;1276;108325;-63
2022/09/04 03:12:09;;;;;;;16.20;7.00;;;;;;;9.91;61.64;99470.27;105910;1276;99346;-64
2022/09/04 03:14:42;;;;;;;;;;;;;;;9.92;61.65;99460.05;105933;1276;96563;-63
2022/09/04 03:17:48;;;;;;;16.70;6.80;;;;;;;9.92;61.93;99460.12;105968;1276;113262;-64
2022/09/04 03:20:26;;;;;;;17.30;7.10;;;;;;;9.94;61.86;99451.42;105869;1276;98399;-63
2022/09/04 03:23:08;;;;;;;16.30;7.40;;;;;;;9.96;61.89;99454.31;105748;1277;108222;-63
2022/09/04 03:26:08;;;;;;;18.30;8.80;;;;;;;10.00;61.98;99451.27;105901;1278;96644;-69
2022/09/04 03:29:08;;;;;;;16.10;7.60;;;;;;;10.04;62.14;99450.27;105938;1276;99795;-64
2022/09/04 03:31:51;;;;;;;17.50;8.30;;;;;;;10.09;62.21;99451.37;105855;1277;112829;-64
2022/09/04 03:34:43;;;;;;;17.40;8.40;;;;;;;10.12;62.14;99456.65;105936;1278;96806;-65
2022/09/04 03:37:33;;;;;;;17.40;8.00;;;;;;;10.16;62.21;99457.88;105784;1278;108303;-64
2022/09/04 03:40:16;;;;;;;18.20;8.60;;;;;;;10.19;62.36;99459.98;105841;1275;99177;-65
2022/09/04 03:42:59;;;;;;;18.90;9.10;;;;;;;10.21;62.36;99458.71;105938;1276;99173;-64
2022/09/04 03:46:18;;;;;;;19.50;8.70;;;;;;;10.25;62.38;99457.08;105838;1277;113432;-64
2022/09/04 03:49:07;;;;;;;19.00;8.60;;;;;;;10.27;62.55;99460.45;105875;1277;99331;-66
2022/09/04 03:52:01;;;;;;;18.50;8.70;;;;;;;10.32;62.65;99465.69;105939;1276;108465;-64
2022/09/04 03:54:38;;;;;;;18.30;9.10;;;;;;;10.35;62.66;99462.98;103218;1276;3692353;-64
2022/09/04 03:57:38;;;;;;;20.80;9.50;;;;;;;10.40;62.68;99466.41;105927;1276;99329;-65
2022/09/04 04:00:20;;;;;;;24.60;12.00;;;;;;;10.46;62.74;99472.83;105929;1276;114036;-65
2022/09/04 04:03:17;;;;;;;20.20;10.00;;;;;;;10.49;62.85;99473.63;105900;1276;97959;-64
2022/09/04 04:06:09;;;;;;;18.00;8.80;;;;;;;10.53;62.95;99473.71;105892;1276;108159;-63
2022/09/04 04:09:10;;;;;;;17.50;9.20;;;;;;;10.58;63.02;99478.41;105856;1277;99269;-64
2022/09/04 04:11:56;;;;;;;18.00;8.40;;;;;;;10.63;62.98;99481.06;106095;1276;99218;-64
2022/09/04 04:14:37;;;;;;;20.30;8.80;;;;;;;10.68;63.10;99476.83;105862;1277;112240;-64
2022/09/04 04:17:20;;;;;;;18.90;9.20;;;;;;;10.74;63.16;99477.16;105941;1276;99214;-65
2022/09/04 04:20:09;;;;;;;18.70;8.50;;;;;;;10.79;63.12;99475.44;106043;1276;106738;-63
2022/09/04 04:23:14;;;;;;;17.60;8.80;;;;;;;10.84;63.30;99476.81;105984;1277;99318;-67
2022/09/04 04:26:25;;;;;;;16.90;8.50;;;;;;;10.91;63.29;99478.19;105998;1276;99955;-64
2022/09/04 04:29:35;;;;;;;18.80;9.60;;;;;;;10.97;63.39;99483.59;105902;1278;112890;-64
2022/09/04 04:32:38;;;;;;;18.60;9.50;;;;;;;11.03;63.47;99487.97;106003;1277;99306;-64
2022/09/04 04:35:16;;;;;;;17.50;8.50;;;;;;;11.09;63.55;99489.70;105843;1277;107732;-66
2022/09/04 04:38:04;;;;;;;20.20;9.50;;;;;;;11.14;63.44;99486.02;105813;1277;98757;-64
2022/09/04 04:41:09;;;;;;;19.80;9.20;;;;;;;11.20;63.44;99489.34;105989;1276;99347;-64
2022/09/04 04:44:09;;;;;;;19.30;9.20;;;;;;;11.26;63.58;99492.45;105858;1277;113589;-66
2022/09/04 04:47:18;;;;;;;18.00;9.20;;;;;;;11.32;63.54;99491.53;105948;1277;99359;-64
2022/09/04 04:50:05;;;;;;;19.70;9.20;;;;;;;11.38;63.72;99490.05;105701;1278;106022;-64
2022/09/04 04:52:53;;;;;;;19.10;9.00;;;;;;;11.44;63.72;99488.02;105977;1277;99533;-65
2022/09/04 04:55:52;;;;;;;17.70;8.40;;;;;;;11.52;63.75;99492.83;105971;1279;99103;-64
2022/09/04 04:58:21;;;;;;;17.60;8.60;;;;;;;11.59;63.78;99493.94;105691;1278;113570;-64
2022/09/04 05:01:10;;;;;;;19.70;8.70;;;;;;;11.66;63.84;99498.23;107595;1277;97383;-65
2022/09/04 05:03:51;;;;;;;20.10;9.00;;;;;;;11.73;63.94;99496.16;107671;1276;107093;-65
2022/09/04 05:06:40;;;;;;;18.60;9.10;;;;;;;11.81;63.89;99495.91;107648;1276;97255;-65
2022/09/04 05:09:20;;;;;;;19.50;8.70;;;;;;;11.90;64.03;99497.09;105896;1276;96527;-62
2022/09/04 05:12:02;;;;;;;17.90;8.30;;;;;;;11.98;63.96;99501.70;105883;1276;112836;-63
2022/09/04 05:14:54;;;;;;;18.60;8.90;;;;;;;12.05;64.12;99503.52;105815;1276;99316;-64
2022/09/04 05:17:48;;;;;;;17.80;8.30;;;;;;;12.11;64.00;99510.18;105710;1276;108414;-67
2022/09/04 05:20:28;;;;;;;17.30;8.20;;;;;;;12.18;64.14;99515.73;105900;1276;99353;-65
2022/09/04 05:23:20;;;;;;;18.20;8.60;;;;;;;12.24;64.12;99515.10;105749;1278;99236;-63
2022/09/04 05:26:02;;;;;;;17.20;8.00;;;;;;;12.30;64.18;99517.55;105738;1276;112816;-66
2022/09/04 05:28:49;;;;;;;19.50;8.50;;;;;;;12.35;64.11;99517.19;105902;1276;99347;-65
2022/09/04 05:31:42;;;;;;;17.00;7.70;;;;;;;12.41;64.02;99517.15;105819;1277;108345;-63
2022/09/04 05:34:20;;;;;;;16.90;8.30;;;;;;;12.44;64.15;99519.33;105901;1276;99265;-65
2022/09/04 05:37:13;;;;;;;17.80;7.50;;;;;;;12.48;64.22;99517.48;105892;1276;99310;-68
2022/09/04 05:40:17;;;;;;;18.10;7.80;;;;;;;12.54;64.15;99522.59;105908;1276;113413;-70
2022/09/04 05:42:54;;;;;;;16.90;7.80;;;;;;;12.58;64.26;99527.46;105954;1276;99340;-69
2022/09/04 05:45:58;;;;;;;16.30;8.20;;;;;;;12.63;64.28;99530.79;105819;1276;108441;-68
2022/09/04 05:48:56;;;;;;;15.30;7.60;;;;;;;12.69;64.27;99534.46;105690;1277;100681;-68
2022/09/04 05:51:25;;;;;;;17.10;7.70;;;;;;;12.75;64.42;99537.21;105850;1277;99360;-65
2022/09/04 05:54:18;;;;;;;16.90;8.10;;;;;;;12.81;64.20;99534.63;105769;1277;114633;-69
2022/09/04 05:57:09;;;;;;;15.90;7.80;;;;;;;12.87;64.35;99537.91;105776;1277;99500;-70
2022/09/04 06:00:07;;;;;;;15.10;7.40;;;;;;;12.93;64.42;99534.98;105925;1277;106770;-69
2022/09/04 06:03:08;;;;;;;17.10;7.60;;;;;;;12.99;64.35;99536.34;105849;1277;99215;-70
2022/09/04 06:06:21;;;;;;;14.40;7.10;;;;;;;13.04;64.44;99537.55;105751;1277;99224;-70
2022/09/04 06:09:11;;;;;;;13.40;6.40;;;;;;;13.13;64.33;99540.09;105846;1277;112474;-69
2022/09/04 06:11:50;;;;;;;13.80;6.50;;;;;;;13.22;64.17;99534.42;105795;1277;99250;-70
2022/09/04 06:14:33;;;;;;;12.40;6.20;;;;;;;13.24;63.81;99532.82;105721;1277;108368;-69
2022/09/04 06:17:19;;;;;;;12.10;5.90;;;;;;;13.22;64.00;99534.58;105829;1277;99231;-69
2022/09/04 06:20:17;;;;;;;11.40;5.60;;;;;;;13.25;63.80;99539.55;105828;1277;99319;-69
2022/09/04 06:22:54;;;;;;;11.30;5.90;;;;;;;13.28;64.04;99543.80;105838;1276;114729;-70
2022/09/04 06:25:35;;;;;;;8.00;5.00;;;;;;;13.31;64.09;99544.05;105799;1277;99240;-69
2022/09/04 06:28:36;;;;;;;11.40;5.60;;;;;;;13.38;63.98;99544.30;105804;1276;108199;-69
2022/09/04 06:31:04;;;;;;;12.00;5.40;;;;;;;13.44;64.32;99547.23;105857;1278;99331;-70
2022/09/04 06:33:40;;;;;;;10.80;5.50;;;;;;;13.54;64.39;99550.05;105892;1277;99230;-66
2022/09/04 06:36:37;;;;;;;9.60;5.40;;;;;;;13.64;64.24;99549.84;105796;1277;113630;-71
2022/09/04 06:39:32;;;;;;;10.70;5.30;;;;;;;13.68;64.35;99553.00;105799;1277;99238;-70
2022/09/04 06:42:24;;;;;;;9.90;5.30;;;;;;;13.77;64.46;99556.66;105714;1278;107090;-69
2022/09/04 06:45:21;;;;;;;12.30;4.80;;;;;;;13.84;64.42;99559.81;105808;1276;99242;-68
2022/09/04 06:48:09;;;;;;;9.00;5.00;;;;;;;13.93;64.41;99568.59;105817;1277;99335;-71
2022/09/04 06:51:25;;;;;;;9.30;4.80;;;;;;;13.98;64.32;99568.91;105837;1277;112589;-69
2022/09/04 06:54:27;;;;;;;12.70;4.90;;;;;;;14.04;64.24;99570.61;105775;1279;99213;-71
2022/09/04 06:57:11;;;;;;;12.10;5.10;;;;;;;14.07;64.20;99570.73;105859;1276;107766;-70
2022/09/04 06:59:59;;;;;;;10.80;5.30;;;;;;;14.08;64.16;99564.69;105819;1277;99235;-70
2022/09/04 07:02:52;;;;;;;11.00;4.90;;;;;;;14.11;64.07;99565.05;105899;1277;99104;-70
2022/09/04 07:05:26;;;;;;;10.80;4.20;;;;;;;14.13;64.03;99569.30;105835;1276;112945;-69
2022/09/04 07:08:01;;;;;;;8.50;3.80;;;;;;;14.16;64.01;99573.56;105989;1275;98359;-69
2022/09/04 07:11:03;;;;;;;6.30;3.60;;;;;;;14.20;64.06;99577.72;105915;1275;106634;-67
2022/09/04 07:13:50;;;;;;;7.60;3.40;;;;;;;14.20;64.01;99579.11;105786;1277;96633;-67
2022/09/04 07:16:35;;;;;;;7.90;3.40;;;;;;;14.24;64.14;99577.55;105869;1276;99213;-68
2022/09/04 07:19:40;;;;;;;6.30;3.30;;;;;;;14.33;64.23;99578.98;105801;1276;112622;-69
2022/09/04 07:22:36;;;;;;;8.20;4.10;;;;;;;14.45;64.29;99578.56;105856;1277;99296;-69
2022/09/04 07:25:25;;;;;;;7.30;3.30;;;;;;;14.56;64.31;99583.70;105810;1276;108405;-67
2022/09/04 07:28:22;;;;;;;6.60;3.30;;;;;;;14.67;64.30;99582.52;105697;1277;99359;-68
2022/09/04 07:31:25;;;;;;;7.10;3.40;;;;;;;14.74;64.13;99579.24;105845;1276;99228;-68
2022/09/04 07:34:22;;;;;;;6.20;3.30;;;;;;;14.85;64.11;99582.72;105968;1276;112486;-68
2022/09/04 07:37:10;;;;;;;5.70;3.40;;;;;;;14.95;63.88;99587.06;105892;1276;96934;-67
2022/09/04 07:40:07;;;;;;;6.40;3.00;;;;;;;15.25;63.77;99584.89;105777;1277;108636;-72
2022/09/04 07:42:52;;;;;;;6.90;3.20;;;;;;;16.14;63.09;99584.16;105798;1276;99229;-70
2022/09/04 07:45:28;;;;;;;12.10;3.30;;;;;;;17.56;62.08;99581.98;105924;1276;99361;-69
2022/09/04 07:48:34;;;;;;;4.80;3.00;;;;;;;18.17;63.06;99581.34;105955;1276;112834;-67
2022/09/04 07:51:15;;;;;;;5.40;2.80;;;;;;;18.74;62.99;99580.10;105832;1276;99246;-69
2022/09/04 07:54:10;;;;;;;4.50;2.90;;;;;;;19.14;63.12;99577.44;106000;1276;107802;-67
2022/09/04 07:57:09;;;;;;;3.30;2.10;;;;;;;19.34;63.30;99579.77;105850;1277;99219;-68
2022/09/04 08:00:09;;;;;;;3.10;2.40;;;;;;;19.67;62.77;99577.11;105895;1276;99218;-73
2022/09/04 08:02:42;;;;;;;7.00;2.60;;;;;;;20.07;62.69;99577.31;105881;1276;111799;-68
2022/09/04 08:05:44;;;;;;;4.60;2.40;;;;;;;20.19;62.72;99578.98;105889;1276;99200;-68
2022/09/04 08:08:28;;;;;;;3.30;2.00;;;;;;;20.69;62.28;99578.83;105847;1276;108819;-70
2022/09/04 08:11:14;;;;;;;4.60;2.00;;;;;;;21.44;61.83;99580.44;105870;1276;97854;-69
2022/09/04 08:14:25;;;;;;;3.10;2.30;;;;;;;21.77;61.59;99580.25;105963;1276;99282;-66
2022/09/04 08:17:45;;;;;;;2.50;2.20;;;;;;;21.64;61.91;99584.59;105935;1276;112786;-69
2022/09/04 08:20:44;;;;;;;3.60;2.40;;;;;;;21.89;61.56;99583.48;105835;1276;99240;-69
2022/09/04 08:23:15;;;;;;;6.40;2.80;;;;;;;22.23;60.92;99582.33;105819;1276;108470;-69
2022/09/04 08:26:13;;;;;;;3.40;2.20;;;;;;;22.55;60.88;99584.52;105819;1276;99378;-66
2022/09/04 08:28:56;;;;;;;5.40;2.60;;;;;;;22.25;61.10;99584.10;105946;1276;99267;-68
2022/09/04 08:31:41;;;;;;;5.60;3.00;;;;;;;22.64;60.81;99584.65;105837;1276;113338;-70
2022/09/04 08:34:18;;;;;;;6.70;2.80;;;;;;;23.26;60.74;99580.64;105681;1277;96701;-70
2022/09/04 08:37:09;;;;;;;8.90;2.70;;;;;;;23.73;60.57;99582.02;105735;1277;107924;-68
2022/09/04 08:40:16;;;;;;;3.80;2.60;;;;;;;24.24;60.34;99585.32;106007;1276;98092;-68
2022/09/04 08:43:02;;;;;;;8.20;3.40;;;;;;;24.50;60.23;99578.38;105525;1279;99311;-68
2022/09/04 08:45:44;;;;;;;6.80;2.80;;;;;;;25.38;59.36;99580.84;105817;1278;113370;-68
2022/09/04 08:49:08;;;;;;;5.90;2.70;;;;;;;25.85;59.34;99577.40;105963;1276;99283;-67
2022/09/04 08:51:38;;;;;;;;;;;;;;;26.19;59.47;99581.66;105845;1276;108459;-69
2022/09/04 08:54:24;;;;;;;4.50;2.20;;;;;;;26.21;59.13;99581.23;105717;1276;99265;-67
2022/09/04 08:57:16;;;;;;;3.60;2.30;;;;;;;26.23;58.83;99580.80;105684;1276;99266;-70
2022/09/04 09:00:15;;;;;;;4.70;2.60;;;;;;;25.94;58.76;99578.67;105711;1277;112793;-70
2022/09/04 09:03:05;;;;;;;5.70;2.50;;;;;;;26.12;58.17;99578.88;105698;1277;97702;-70
2022/09/04 09:05:46;;;;;;;4.00;2.80;;;;;;;26.14;58.01;99581.66;105859;1276;108467;-73
2022/09/04 09:08:52;;;;;;;4.60;2.50;;;;;;;25.73;57.79;99579.75;105779;1276;97303;-70
2022/09/04 09:11:19;;;;;;;5.60;2.70;;;;;;;25.34;57.56;99583.98;105875;1276;100912;-72
2022/09/04 09:14:26;;;;;;;4.20;2.30;;;;;;;25.11;57.51;99583.42;105994;1276;113394;-71
2022/09/04 09:17:15;;;;;;;5.00;2.70;;;;;;;24.77;57.15;99582.93;105839;1276;97786;-69
2022/09/04 09:20:21;;;;;;;5.20;2.50;;;;;;;24.40;56.56;99582.85;105819;1276;108776;-70
2022/09/04 09:23:17;;;;;;;6.00;2.20;;;;;;;24.08;56.55;99582.06;105808;1276;99326;-64
2022/09/04 09:26:05;;;;;;;4.20;2.50;;;;;;;23.66;56.01;99581.80;105918;1276;99244;-66
2022/09/04 09:28:33;;;;;;;5.60;2.50;;;;;;;23.35;56.07;99583.08;105882;1276;114506;-65
2022/09/04 09:31:52;;;;;;;6.50;2.30;;;;;;;23.36;55.68;99580.33;106012;1276;99324;-70
2022/09/04 09:34:45;;;;;;;3.90;2.30;;;;;;;23.16;55.35;99582.95;105930;1276;107877;-70
2022/09/04 09:37:27;;;;;;;6.70;2.50;;;;;;;23.01;55.39;99586.89;105839;1277;96889;-70
2022/09/04 09:40:35;;;;;;;9.70;2.70;;;;;;;22.86;55.16;99584.21;105653;1278;99337;-66
2022/09/04 09:43:28;;;;;;;3.20;1.90;;;;;;;22.72;55.01;99594.30;105917;1276;113424;-67
2022/09/04 09:46:37;;;;;;;2.60;2.20;;;;;;;22.67;54.69;99588.96;105858;1276;99231;-67
2022/09/04 09:49:41;;;;;;;4.10;2.10;;;;;;;22.55;54.70;99591.81;105867;1276;108217;-71
2022/09/04 09:52:47;;;;;;;8.90;3.10;;;;;;;22.35;54.29;99583.95;105851;1276;99366;-69
2022/09/04 09:55:30;;;;;;;7.70;2.60;;;;;;;22.11;54.21;99589.72;105916;1276;99238;-69
2022/09/04 09:58:30;;;;;;;7.40;2.90;;;;;;;21.99;54.08;99595.37;105801;1277;112758;-69
2022/09/04 10:01:05;;;;;;;8.30;3.40;;;;;;;21.87;53.79;99588.96;105841;1277;99214;-69
2022/09/04 10:03:38;;;;;;;5.20;2.50;;;;;;;21.79;53.53;99588.89;105876;1276;108436;-67
2022/09/04 10:06:48;;;;;;;10.00;3.70;;;;;;;21.74;53.79;99586.08;105822;1276;99337;-67
2022/09/04 10:09:42;;;;;;;9.90;2.90;;;;;;;21.65;53.61;99585.75;105833;1276;99215;-70
2022/09/04 10:12:39;;;;;;;5.70;2.30;;;;;;;21.59;53.45;99583.48;105930;1276;112684;-68
2022/09/04 10:15:24;;;;;;;5.20;2.00;;;;;;;21.52;53.33;99587.73;105299;1277;99421;-70
2022/09/04 10:17:53;;;;;;;4.60;2.30;;;;;;;21.50;53.12;99589.94;105969;1276;109273;-69
2022/09/04 10:20:41;;;;;;;5.30;2.20;;;;;;;21.51;53.16;99591.48;105749;1278;99396;-69
2022/09/04 10:23:37;;;;;;;4.20;1.80;;;;;;;21.49;52.98;99591.08;105976;1278;99313;-68
2022/09/04 10:26:27;;;;;;;4.70;1.70;;;;;;;21.50;52.86;99591.90;105859;1277;113305;-70
2022/09/04 10:29:36;;;;;;;2.50;1.40;;;;;;;21.43;52.69;99597.21;105898;1276;99175;-72
2022/09/04 10:32:03;;;;;;;3.80;1.60;;;;;;;21.09;52.07;99593.33;105767;1276;107788;-70
2022/09/04 10:35:06;;;;;;;2.80;1.80;;;;;;;20.81;52.23;99595.04;105845;1276;99189;-69
2022/09/04 10:38:00;;;;;;;2.30;1.70;;;;;;;20.77;52.36;99594.59;106025;1276;99318;-69
2022/09/04 10:40:49;;;;;;;3.00;1.40;;;;;;;20.80;52.47;99595.47;105830;1278;113355;-69
2022/09/04 10:43:37;;;;;;;2.10;1.30;;;;;;;20.76;51.97;99594.45;105847;1279;97031;-69
2022/09/04 10:46:19;;;;;;;3.80;1.30;;;;;;;20.67;51.85;99587.77;105872;1277;108357;-70
2022/09/04 10:49:18;;;;;;;4.00;1.40;;;;;;;20.71;52.10;99586.84;105977;1277;99204;-69
2022/09/04 10:52:20;;;;;;;3.60;1.30;;;;;;;20.80;52.11;99584.66;105890;1277;99214;-69
2022/09/04 10:55:01;;;;;;;1.70;1.40;;;;;;;20.91;51.65;99584.63;105946;1276;113410;-67
2022/09/04 10:57:51;;;;;;;3.00;1.50;;;;;;;21.00;51.85;99584.67;105881;1276;99257;-69
2022/09/04 11:00:27;;;;;;;1.80;1.40;;;;;;;21.20;51.92;99581.61;105792;1276;108654;-69
2022/09/04 11:03:17;;;;;;;3.10;1.80;;;;;;;21.26;51.79;99579.38;105790;1276;99906;-68
2022/09/04 11:06:15;;;;;;;3.50;1.50;;;;;;;21.34;51.58;99573.66;105904;1277;96656;-67
2022/09/04 11:09:27;;;;;;;1.90;1.70;;;;;;;21.48;51.54;99575.72;105909;1276;113398;-68
2022/09/04 11:12:15;;;;;;;1.40;1.30;;;;;;;21.50;51.56;99577.63;105880;1276;99328;-72
2022/09/04 11:15:26;;;;;;;2.80;1.70;;;;;;;21.63;51.39;99576.27;105858;1277;107604;-69
2022/09/04 11:18:10;;;;;;;5.70;1.90;;;;;;;21.79;51.37;99577.78;105688;1279;99335;-67
2022/09/04 11:21:02;;;;;;;8.60;2.70;;;;;;;21.98;51.42;99577.60;105753;1279;99327;-67
2022/09/04 11:24:01;;;;;;;2.40;1.80;;;;;;;22.16;51.37;99576.49;105882;1277;112323;-79
2022/09/04 11:26:32;;;;;;;4.00;2.00;;;;;;;22.28;51.11;99574.75;105942;1277;99304;-71
2022/09/04 11:29:14;;;;;;;3.80;2.10;;;;;;;22.33;51.13;99580.53;106209;1276;107803;-73
2022/09/04 11:32:13;;;;;;;2.70;1.80;;;;;;;22.36;51.01;99578.55;106014;1276;98244;-68
2022/09/04 11:34:43;;;;;;;10.20;2.30;;;;;;;22.41;51.02;99581.48;106084;1277;99404;-67
2022/09/04 11:37:14;;;;;;;4.10;2.00;;;;;;;22.41;51.00;99576.66;105732;1279;115029;-70
2022/09/04 11:39:52;;;;;;;7.20;1.90;;;;;;;22.35;50.76;99579.07;105932;1276;99099;-70
2022/09/04 11:43:14;;;;;;;2.90;1.90;;;;;;;22.32;50.56;99577.92;105805;1277;107830;-70
2022/09/04 11:45:54;;;;;;;2.70;1.40;;;;;;;22.37;50.72;99577.91;105043;1285;99376;-67
2022/09/04 11:48:55;;;;;;;1.70;1.40;;;;;;;22.33;50.59;99577.84;105848;1276;99388;-73
2022/09/04 11:51:48;;;;;;;5.20;1.90;;;;;;;22.35;50.48;99571.14;105537;1276;112863;-64
2022/09/04 11:54:34;;;;;;;2.10;1.70;;;;;;;22.40;50.54;99573.59;105905;1276;99249;-69
2022/09/04 11:57:20;;;;;;;3.90;1.80;;;;;;;22.37;50.22;99571.81;105835;1276;108371;-68
2022/09/04 12:00:08;;;;;;;2.90;1.70;;;;;;;22.32;50.12;99570.71;105777;1277;99320;-69
2022/09/04 12:02:42;;;;;;;5.90;1.80;;;;;;;22.29;50.06;99571.97;105734;1276;99255;-69
2022/09/04 12:05:53;;;;;;;4.30;2.20;;;;;;;22.27;49.90;99572.35;105830;1277;113327;-71
2022/09/04 12:08:34;;;;;;;3.70;1.60;;;;;;;22.39;49.88;99573.73;105725;1277;99186;-64
2022/09/04 12:11:31;;;;;;;3.80;1.40;;;;;;;22.51;50.01;99569.84;105872;1276;107354;-68
2022/09/04 12:14:09;;;;;;;5.20;1.90;;;;;;;22.53;49.85;99562.95;105837;1279;99344;-69
2022/09/04 12:16:52;;;;;;;4.10;2.00;;;;;;;22.57;49.61;99557.59;105696;1276;99318;-71
2022/09/04 12:19:27;;;;;;;2.00;1.50;;;;;;;22.57;49.77;99555.75;105723;1277;112767;-73
2022/09/04 12:22:09;;;;;;;2.50;2.00;;;;;;;22.62;49.73;99555.62;105695;1276;99358;-70
2022/09/04 12:24:50;;;;;;;3.50;1.90;;;;;;;22.70;49.64;99554.83;105851;1276;108227;-71
2022/09/04 12:27:48;;;;;;;3.20;1.10;;;;;;;22.82;49.48;99552.34;105831;1276;99308;-69
2022/09/04 12:30:34;;;;;;;3.70;1.50;;;;;;;22.96;49.39;99541.19;105891;1277;99315;-68
2022/09/04 12:33:18;;;;;;;2.90;1.70;;;;;;;23.03;49.29;99538.52;105925;1277;112803;-68
2022/09/04 12:35:59;;;;;;;3.50;1.60;;;;;;;23.01;48.99;99544.02;105788;1277;99223;-69
2022/09/04 12:38:40;;;;;;;3.40;1.30;;;;;;;23.06;49.15;99541.45;105756;1277;108588;-70
2022/09/04 12:41:34;;;;;;;1.40;1.30;;;;;;;23.15;49.10;99541.28;105862;1277;99369;-69
2022/09/04 12:44:26;;;;;;;2.50;1.30;;;;;;;23.12;48.83;99537.10;105825;1276;99328;-67
2022/09/04 12:47:15;;;;;;;2.50;1.60;;;;;;;23.02;48.71;99539.56;105816;1276;113374;-66
2022/09/04 12:49:54;;;;;;;3.10;1.30;;;;;;;22.94;48.70;99538.16;105820;1276;99229;-67
2022/09/04 12:52:34;;;;;;;2.00;1.60;;;;;;;22.87;48.34;99536.02;105777;1276;108675;-67
2022/09/04 12:55:15;;;;;;;2.80;1.60;;;;;;;22.78;48.43;99538.05;105807;1277;99329;-68
2022/09/04 12:58:01;;;;;;;2.60;1.50;;;;;;;22.82;48.68;99542.25;106002;1277;97638;-68
2022/09/04 13:00:48;;;;;;;3.70;1.70;;;;;;;22.87;48.18;99542.57;105890;1276;113464;-67
2022/09/04 13:03:32;;;;;;;4.20;1.70;;;;;;;22.89;48.28;99538.99;105957;1276;99386;-67
2022/09/04 13:06:36;;;;;;;2.50;1.40;;;;;;;22.94;48.18;99541.21;105948;1276;107751;-69